sensor_id;sensor_type;location;lat;lon;timestamp;P1;durP1;ratioP1;P2;durP2;ratioP2
67174;SDS011;54110;45.778;4.826;2022-08-01T00:00:45;2.40;;;1.00;;
67174;SDS011;54110;45.778;4.826;2022-08-01T00:03:11;1.77;;;0.90;;
67174;SDS011;54110;45.778;4.826;2022-08-01T00:05:37;2.67;;;1.25;;
67174;SDS011;54110;45.778;4.826;2022-08-01T00:08:02;4.35;;;1.13;;
67174;SDS011;54110;45.778;4.826;2022-08-01T00:10:30;1.40;;;1.00;;
67174;SDS011;54110;45.778;4.826;2022-08-01T00:12:56;1.45;;;1.15;;
67174;SDS011;54110;45.778;4.826;2022-08-01T00:15:22;2.67;;;1.00;;
67174;SDS011;54110;45.778;4.826;2022-08-01T00:17:47;2.15;;;1.13;;
67174;SDS011;54110;45.778;4.826;2022-08-01T00:20:15;5.65;;;1.30;;
67174;SDS011;54110;45.778;4.826;2022-08-01T00:22:41;2.95;;;1.10;;
67174;SDS011;54110;45.778;4.826;2022-08-01T00:25:07;1.67;;;1.13;;
67174;SDS011;54110;45.778;4.826;2022-08-01T00:27:34;1.83;;;0.98;;
67174;SDS011;54110;45.778;4.826;2022-08-01T00:30:00;1.48;;;1.10;;
67174;SDS011;54110;45.778;4.826;2022-08-01T00:32:26;2.15;;;1.27;;
67174;SDS011;54110;45.778;4.826;2022-08-01T00:34:51;4.22;;;1.17;;
67174;SDS011;54110;45.778;4.826;2022-08-01T00:37:17;2.10;;;1.15;;
67174;SDS011;54110;45.778;4.826;2022-08-01T00:39:43;2.35;;;1.23;;
67174;SDS011;54110;45.778;4.826;2022-08-01T00:42:09;2.17;;;1.40;;
67174;SDS011;54110;45.778;4.826;2022-08-01T00:44:37;1.90;;;1.35;;
67174;SDS011;54110;45.778;4.826;2022-08-01T00:47:04;1.23;;;0.90;;
67174;SDS011;54110;45.778;4.826;2022-08-01T00:49:30;1.48;;;1.05;;
67174;SDS011;54110;45.778;4.826;2022-08-01T00:51:56;1.98;;;0.90;;
67174;SDS011;54110;45.778;4.826;2022-08-01T00:54:22;2.00;;;0.90;;
67174;SDS011;54110;45.778;4.826;2022-08-01T00:56:49;2.30;;;1.17;;
67174;SDS011;54110;45.778;4.826;2022-08-01T00:59:15;2.10;;;1.00;;
67174;SDS011;54110;45.778;4.826;2022-08-01T01:01:44;1.27;;;1.00;;
67174;SDS011;54110;45.778;4.826;2022-08-01T01:04:10;3.63;;;0.80;;
67174;SDS011;54110;45.778;4.826;2022-08-01T01:06:39;1.17;;;0.75;;
67174;SDS011;54110;45.778;4.826;2022-08-01T01:09:16;5.95;;;1.80;;
67174;SDS011;54110;45.778;4.826;2022-08-01T01:11:49;2.67;;;1.55;;
67174;SDS011;54110;45.778;4.826;2022-08-01T01:14:27;4.78;;;1.20;;
67174;SDS011;54110;45.778;4.826;2022-08-01T01:16:59;2.30;;;1.05;;
67174;SDS011;54110;45.778;4.826;2022-08-01T01:19:28;2.78;;;1.20;;
67174;SDS011;54110;45.778;4.826;2022-08-01T01:22:08;3.50;;;1.00;;
67174;SDS011;54110;45.778;4.826;2022-08-01T01:24:45;1.65;;;1.00;;
67174;SDS011;54110;45.778;4.826;2022-08-01T01:27:21;2.17;;;1.10;;
67174;SDS011;54110;45.778;4.826;2022-08-01T01:29:56;1.38;;;0.98;;
67174;SDS011;54110;45.778;4.826;2022-08-01T01:32:25;1.55;;;0.95;;
67174;SDS011;54110;45.778;4.826;2022-08-01T01:34:56;2.08;;;1.00;;
67174;SDS011;54110;45.778;4.826;2022-08-01T01:37:24;1.10;;;0.88;;
67174;SDS011;54110;45.778;4.826;2022-08-01T01:39:52;2.58;;;0.82;;
67174;SDS011;54110;45.778;4.826;2022-08-01T01:42:19;1.65;;;1.20;;
67174;SDS011;54110;45.778;4.826;2022-08-01T01:44:47;6.55;;;1.20;;
67174;SDS011;54110;45.778;4.826;2022-08-01T01:47:16;2.83;;;0.80;;
67174;SDS011;54110;45.778;4.826;2022-08-01T01:49:43;3.33;;;0.98;;
67174;SDS011;54110;45.778;4.826;2022-08-01T01:52:11;2.47;;;0.88;;
67174;SDS011;54110;45.778;4.826;2022-08-01T01:54:39;5.10;;;0.93;;
67174;SDS011;54110;45.778;4.826;2022-08-01T01:57:09;1.67;;;0.80;;
67174;SDS011;54110;45.778;4.826;2022-08-01T01:59:37;1.83;;;0.90;;
67174;SDS011;54110;45.778;4.826;2022-08-01T02:02:04;11.00;;;1.10;;
67174;SDS011;54110;45.778;4.826;2022-08-01T02:04:34;0.90;;;0.80;;
67174;SDS011;54110;45.778;4.826;2022-08-01T02:07:02;2.95;;;1.00;;
67174;SDS011;54110;45.778;4.826;2022-08-01T02:09:29;1.80;;;0.85;;
67174;SDS011;54110;45.778;4.826;2022-08-01T02:11:56;3.10;;;1.10;;
67174;SDS011;54110;45.778;4.826;2022-08-01T02:14:24;1.15;;;1.00;;
67174;SDS011;54110;45.778;4.826;2022-08-01T02:16:50;2.05;;;1.10;;
67174;SDS011;54110;45.778;4.826;2022-08-01T02:19:17;2.85;;;1.13;;
67174;SDS011;54110;45.778;4.826;2022-08-01T02:21:46;1.58;;;0.80;;
67174;SDS011;54110;45.778;4.826;2022-08-01T02:24:17;1.75;;;1.00;;
67174;SDS011;54110;45.778;4.826;2022-08-01T02:26:47;1.20;;;1.10;;
67174;SDS011;54110;45.778;4.826;2022-08-01T02:29:17;1.00;;;0.90;;
67174;SDS011;54110;45.778;4.826;2022-08-01T02:31:47;1.80;;;1.02;;
67174;SDS011;54110;45.778;4.826;2022-08-01T02:34:16;1.00;;;0.75;;
67174;SDS011;54110;45.778;4.826;2022-08-01T02:36:45;1.63;;;1.00;;
67174;SDS011;54110;45.778;4.826;2022-08-01T02:39:13;2.17;;;1.10;;
67174;SDS011;54110;45.778;4.826;2022-08-01T02:41:43;2.33;;;0.73;;
67174;SDS011;54110;45.778;4.826;2022-08-01T02:44:14;1.98;;;1.02;;
67174;SDS011;54110;45.778;4.826;2022-08-01T02:46:49;1.40;;;1.17;;
67174;SDS011;54110;45.778;4.826;2022-08-01T02:49:17;1.92;;;1.10;;
67174;SDS011;54110;45.778;4.826;2022-08-01T02:51:45;1.20;;;0.80;;
67174;SDS011;54110;45.778;4.826;2022-08-01T02:54:12;6.80;;;0.98;;
67174;SDS011;54110;45.778;4.826;2022-08-01T02:56:41;1.60;;;1.00;;
67174;SDS011;54110;45.778;4.826;2022-08-01T02:59:10;1.80;;;1.23;;
67174;SDS011;54110;45.778;4.826;2022-08-01T03:01:38;2.22;;;1.10;;
67174;SDS011;54110;45.778;4.826;2022-08-01T03:04:04;3.03;;;0.98;;
67174;SDS011;54110;45.778;4.826;2022-08-01T03:06:32;1.77;;;1.00;;
67174;SDS011;54110;45.778;4.826;2022-08-01T03:09:00;1.38;;;0.82;;
67174;SDS011;54110;45.778;4.826;2022-08-01T03:11:27;2.75;;;0.80;;
67174;SDS011;54110;45.778;4.826;2022-08-01T03:13:55;2.45;;;0.77;;
67174;SDS011;54110;45.778;4.826;2022-08-01T03:16:24;1.65;;;0.93;;
67174;SDS011;54110;45.778;4.826;2022-08-01T03:18:53;1.98;;;0.95;;
67174;SDS011;54110;45.778;4.826;2022-08-01T03:21:21;1.65;;;0.88;;
67174;SDS011;54110;45.778;4.826;2022-08-01T03:23:48;2.63;;;1.40;;
67174;SDS011;54110;45.778;4.826;2022-08-01T03:26:17;1.33;;;0.90;;
67174;SDS011;54110;45.778;4.826;2022-08-01T03:28:44;3.15;;;1.23;;
67174;SDS011;54110;45.778;4.826;2022-08-01T03:31:12;3.60;;;1.10;;
67174;SDS011;54110;45.778;4.826;2022-08-01T03:33:39;1.02;;;0.85;;
67174;SDS011;54110;45.778;4.826;2022-08-01T03:36:05;1.60;;;0.95;;
67174;SDS011;54110;45.778;4.826;2022-08-01T03:38:37;2.08;;;0.98;;
67174;SDS011;54110;45.778;4.826;2022-08-01T03:41:05;2.47;;;0.85;;
67174;SDS011;54110;45.778;4.826;2022-08-01T03:43:38;2.10;;;1.10;;
67174;SDS011;54110;45.778;4.826;2022-08-01T03:46:06;2.55;;;1.25;;
67174;SDS011;54110;45.778;4.826;2022-08-01T03:48:35;3.70;;;1.00;;
67174;SDS011;54110;45.778;4.826;2022-08-01T03:51:04;1.35;;;1.00;;
67174;SDS011;54110;45.778;4.826;2022-08-01T03:53:32;1.15;;;0.85;;
67174;SDS011;54110;45.778;4.826;2022-08-01T03:55:59;1.80;;;0.80;;
67174;SDS011;54110;45.778;4.826;2022-08-01T03:58:27;2.25;;;1.10;;
67174;SDS011;54110;45.778;4.826;2022-08-01T04:00:55;1.65;;;0.90;;
67174;SDS011;54110;45.778;4.826;2022-08-01T04:03:22;1.08;;;0.95;;
67174;SDS011;54110;45.778;4.826;2022-08-01T04:05:48;4.15;;;1.27;;
67174;SDS011;54110;45.778;4.826;2022-08-01T04:08:14;2.05;;;1.30;;
67174;SDS011;54110;45.778;4.826;2022-08-01T04:10:39;2.25;;;1.40;;
67174;SDS011;54110;45.778;4.826;2022-08-01T04:13:06;1.83;;;1.00;;
67174;SDS011;54110;45.778;4.826;2022-08-01T04:15:31;2.17;;;1.00;;
67174;SDS011;54110;45.778;4.826;2022-08-01T04:17:58;1.45;;;1.20;;
67174;SDS011;54110;45.778;4.826;2022-08-01T04:20:24;1.73;;;1.10;;
67174;SDS011;54110;45.778;4.826;2022-08-01T04:22:50;4.40;;;1.08;;
67174;SDS011;54110;45.778;4.826;2022-08-01T04:25:17;1.33;;;0.93;;
67174;SDS011;54110;45.778;4.826;2022-08-01T04:27:47;3.50;;;1.10;;
67174;SDS011;54110;45.778;4.826;2022-08-01T04:30:15;0.90;;;0.90;;
67174;SDS011;54110;45.778;4.826;2022-08-01T04:32:43;2.17;;;1.20;;
67174;SDS011;54110;45.778;4.826;2022-08-01T04:35:13;2.65;;;1.10;;
67174;SDS011;54110;45.778;4.826;2022-08-01T04:37:43;2.00;;;1.13;;
67174;SDS011;54110;45.778;4.826;2022-08-01T04:40:11;1.63;;;1.00;;
67174;SDS011;54110;45.778;4.826;2022-08-01T04:42:37;1.45;;;1.00;;
67174;SDS011;54110;45.778;4.826;2022-08-01T04:45:04;2.35;;;1.30;;
67174;SDS011;54110;45.778;4.826;2022-08-01T04:47:30;2.05;;;1.10;;
67174;SDS011;54110;45.778;4.826;2022-08-01T04:49:56;1.00;;;0.80;;
67174;SDS011;54110;45.778;4.826;2022-08-01T04:52:24;3.63;;;1.13;;
67174;SDS011;54110;45.778;4.826;2022-08-01T04:54:59;3.65;;;1.10;;
67174;SDS011;54110;45.778;4.826;2022-08-01T04:57:25;1.35;;;1.10;;
67174;SDS011;54110;45.778;4.826;2022-08-01T04:59:51;2.25;;;1.05;;
67174;SDS011;54110;45.778;4.826;2022-08-01T05:02:17;1.55;;;1.05;;
67174;SDS011;54110;45.778;4.826;2022-08-01T05:04:43;1.30;;;1.10;;
67174;SDS011;54110;45.778;4.826;2022-08-01T05:07:10;3.15;;;1.40;;
67174;SDS011;54110;45.778;4.826;2022-08-01T05:09:38;4.45;;;1.70;;
67174;SDS011;54110;45.778;4.826;2022-08-01T05:12:05;2.92;;;1.33;;
67174;SDS011;54110;45.778;4.826;2022-08-01T05:14:32;5.45;;;1.50;;
67174;SDS011;54110;45.778;4.826;2022-08-01T05:16:58;3.42;;;1.20;;
67174;SDS011;54110;45.778;4.826;2022-08-01T05:19:24;2.45;;;1.20;;
67174;SDS011;54110;45.778;4.826;2022-08-01T05:21:50;3.22;;;1.45;;
67174;SDS011;54110;45.778;4.826;2022-08-01T05:24:15;3.13;;;1.33;;
67174;SDS011;54110;45.778;4.826;2022-08-01T05:26:42;4.05;;;1.35;;
67174;SDS011;54110;45.778;4.826;2022-08-01T05:29:08;2.42;;;1.35;;
67174;SDS011;54110;45.778;4.826;2022-08-01T05:31:34;3.10;;;1.42;;
67174;SDS011;54110;45.778;4.826;2022-08-01T05:34:00;4.65;;;1.35;;
67174;SDS011;54110;45.778;4.826;2022-08-01T05:36:25;4.32;;;1.45;;
67174;SDS011;54110;45.778;4.826;2022-08-01T05:38:51;2.30;;;1.15;;
67174;SDS011;54110;45.778;4.826;2022-08-01T05:41:17;3.05;;;1.30;;
67174;SDS011;54110;45.778;4.826;2022-08-01T05:43:44;2.63;;;1.55;;
67174;SDS011;54110;45.778;4.826;2022-08-01T05:46:10;4.30;;;1.42;;
67174;SDS011;54110;45.778;4.826;2022-08-01T05:48:35;2.95;;;1.25;;
67174;SDS011;54110;45.778;4.826;2022-08-01T05:51:01;3.40;;;1.38;;
67174;SDS011;54110;45.778;4.826;2022-08-01T05:53:27;9.50;;;1.40;;
67174;SDS011;54110;45.778;4.826;2022-08-01T05:55:53;2.70;;;1.42;;
67174;SDS011;54110;45.778;4.826;2022-08-01T05:58:19;2.17;;;1.50;;
67174;SDS011;54110;45.778;4.826;2022-08-01T06:00:46;2.45;;;1.40;;
67174;SDS011;54110;45.778;4.826;2022-08-01T06:03:12;8.85;;;1.40;;
67174;SDS011;54110;45.778;4.826;2022-08-01T06:05:38;8.40;;;1.60;;
67174;SDS011;54110;45.778;4.826;2022-08-01T06:08:03;2.78;;;1.30;;
67174;SDS011;54110;45.778;4.826;2022-08-01T06:10:29;7.70;;;1.25;;
67174;SDS011;54110;45.778;4.826;2022-08-01T06:12:55;1.55;;;1.15;;
67174;SDS011;54110;45.778;4.826;2022-08-01T06:15:21;1.50;;;1.20;;
67174;SDS011;54110;45.778;4.826;2022-08-01T06:17:48;4.45;;;1.25;;
67174;SDS011;54110;45.778;4.826;2022-08-01T06:20:13;2.40;;;1.23;;
67174;SDS011;54110;45.778;4.826;2022-08-01T06:22:39;3.03;;;1.50;;
67174;SDS011;54110;45.778;4.826;2022-08-01T06:25:06;2.08;;;1.27;;
67174;SDS011;54110;45.778;4.826;2022-08-01T06:27:33;8.65;;;1.35;;
67174;SDS011;54110;45.778;4.826;2022-08-01T06:29:59;5.53;;;1.70;;
67174;SDS011;54110;45.778;4.826;2022-08-01T06:32:25;3.75;;;1.80;;
67174;SDS011;54110;45.778;4.826;2022-08-01T06:34:52;5.45;;;1.50;;
67174;SDS011;54110;45.778;4.826;2022-08-01T06:37:18;4.45;;;1.40;;
67174;SDS011;54110;45.778;4.826;2022-08-01T06:39:44;3.35;;;1.48;;
67174;SDS011;54110;45.778;4.826;2022-08-01T06:42:09;7.57;;;1.70;;
67174;SDS011;54110;45.778;4.826;2022-08-01T06:44:35;3.15;;;1.40;;
67174;SDS011;54110;45.778;4.826;2022-08-01T06:47:01;2.17;;;1.27;;
67174;SDS011;54110;45.778;4.826;2022-08-01T06:49:27;7.95;;;1.70;;
67174;SDS011;54110;45.778;4.826;2022-08-01T06:51:54;8.57;;;1.52;;
67174;SDS011;54110;45.778;4.826;2022-08-01T06:54:20;8.05;;;1.55;;
67174;SDS011;54110;45.778;4.826;2022-08-01T06:56:46;3.58;;;1.48;;
67174;SDS011;54110;45.778;4.826;2022-08-01T06:59:11;3.03;;;1.38;;
67174;SDS011;54110;45.778;4.826;2022-08-01T07:01:37;10.98;;;2.03;;
67174;SDS011;54110;45.778;4.826;2022-08-01T07:04:03;3.42;;;1.70;;
67174;SDS011;54110;45.778;4.826;2022-08-01T07:06:29;1.95;;;1.20;;
67174;SDS011;54110;45.778;4.826;2022-08-01T07:08:56;7.72;;;1.40;;
67174;SDS011;54110;45.778;4.826;2022-08-01T07:11:23;5.80;;;1.42;;
67174;SDS011;54110;45.778;4.826;2022-08-01T07:13:49;4.85;;;1.40;;
67174;SDS011;54110;45.778;4.826;2022-08-01T07:16:15;3.90;;;1.85;;
67174;SDS011;54110;45.778;4.826;2022-08-01T07:18:41;7.85;;;1.50;;
67174;SDS011;54110;45.778;4.826;2022-08-01T07:21:07;3.42;;;1.20;;
67174;SDS011;54110;45.778;4.826;2022-08-01T07:23:33;3.63;;;1.45;;
67174;SDS011;54110;45.778;4.826;2022-08-01T07:26:02;6.75;;;1.52;;
67174;SDS011;54110;45.778;4.826;2022-08-01T07:28:28;5.78;;;1.60;;
67174;SDS011;54110;45.778;4.826;2022-08-01T07:30:54;2.15;;;1.27;;
67174;SDS011;54110;45.778;4.826;2022-08-01T07:33:20;5.68;;;1.75;;
67174;SDS011;54110;45.778;4.826;2022-08-01T07:35:45;2.75;;;1.55;;
67174;SDS011;54110;45.778;4.826;2022-08-01T07:38:11;4.32;;;1.50;;
67174;SDS011;54110;45.778;4.826;2022-08-01T07:40:37;2.40;;;1.30;;
67174;SDS011;54110;45.778;4.826;2022-08-01T07:43:04;5.45;;;1.52;;
67174;SDS011;54110;45.778;4.826;2022-08-01T07:45:30;3.50;;;1.42;;
67174;SDS011;54110;45.778;4.826;2022-08-01T07:47:55;2.40;;;1.50;;
67174;SDS011;54110;45.778;4.826;2022-08-01T07:50:21;2.78;;;1.40;;
67174;SDS011;54110;45.778;4.826;2022-08-01T07:52:47;6.30;;;1.30;;
67174;SDS011;54110;45.778;4.826;2022-08-01T07:55:13;3.78;;;1.58;;
67174;SDS011;54110;45.778;4.826;2022-08-01T07:57:38;6.07;;;1.60;;
67174;SDS011;54110;45.778;4.826;2022-08-01T08:00:06;4.68;;;1.33;;
67174;SDS011;54110;45.778;4.826;2022-08-01T08:02:32;3.72;;;1.27;;
67174;SDS011;54110;45.778;4.826;2022-08-01T08:04:58;4.43;;;1.60;;
67174;SDS011;54110;45.778;4.826;2022-08-01T08:07:24;7.07;;;1.63;;
67174;SDS011;54110;45.778;4.826;2022-08-01T08:09:49;4.80;;;1.60;;
67174;SDS011;54110;45.778;4.826;2022-08-01T08:12:15;3.30;;;1.40;;
67174;SDS011;54110;45.778;4.826;2022-08-01T08:14:41;9.70;;;1.58;;
67174;SDS011;54110;45.778;4.826;2022-08-01T08:17:08;5.13;;;1.40;;
67174;SDS011;54110;45.778;4.826;2022-08-01T08:19:34;5.22;;;1.30;;
67174;SDS011;54110;45.778;4.826;2022-08-01T08:21:59;7.47;;;1.30;;
67174;SDS011;54110;45.778;4.826;2022-08-01T08:24:25;2.30;;;1.40;;
67174;SDS011;54110;45.778;4.826;2022-08-01T08:26:52;3.35;;;1.40;;
67174;SDS011;54110;45.778;4.826;2022-08-01T08:29:19;39.10;;;3.35;;
67174;SDS011;54110;45.778;4.826;2022-08-01T08:31:45;14.10;;;2.10;;
67174;SDS011;54110;45.778;4.826;2022-08-01T08:34:12;21.83;;;2.55;;
67174;SDS011;54110;45.778;4.826;2022-08-01T08:36:38;5.65;;;1.73;;
67174;SDS011;54110;45.778;4.826;2022-08-01T08:39:04;4.10;;;1.45;;
67174;SDS011;54110;45.778;4.826;2022-08-01T08:41:30;4.25;;;1.13;;
67174;SDS011;54110;45.778;4.826;2022-08-01T08:43:56;7.45;;;1.63;;
67174;SDS011;54110;45.778;4.826;2022-08-01T08:46:22;4.32;;;1.40;;
67174;SDS011;54110;45.778;4.826;2022-08-01T08:48:50;5.05;;;1.40;;
67174;SDS011;54110;45.778;4.826;2022-08-01T08:51:18;2.47;;;1.35;;
67174;SDS011;54110;45.778;4.826;2022-08-01T08:53:44;5.13;;;1.15;;
67174;SDS011;54110;45.778;4.826;2022-08-01T08:56:12;1.55;;;1.25;;
67174;SDS011;54110;45.778;4.826;2022-08-01T08:58:38;1.83;;;1.13;;
67174;SDS011;54110;45.778;4.826;2022-08-01T09:01:06;3.15;;;1.40;;
67174;SDS011;54110;45.778;4.826;2022-08-01T09:03:32;2.85;;;1.48;;
67174;SDS011;54110;45.778;4.826;2022-08-01T09:05:58;1.75;;;1.02;;
67174;SDS011;54110;45.778;4.826;2022-08-01T09:08:25;3.35;;;1.10;;
67174;SDS011;54110;45.778;4.826;2022-08-01T09:10:51;4.30;;;1.20;;
67174;SDS011;54110;45.778;4.826;2022-08-01T09:13:17;2.15;;;1.40;;
67174;SDS011;54110;45.778;4.826;2022-08-01T09:15:43;3.45;;;1.45;;
67174;SDS011;54110;45.778;4.826;2022-08-01T09:18:27;1.95;;;1.40;;
67174;SDS011;54110;45.778;4.826;2022-08-01T09:21:10;2.50;;;1.48;;
67174;SDS011;54110;45.778;4.826;2022-08-01T09:23:39;2.33;;;1.38;;
67174;SDS011;54110;45.778;4.826;2022-08-01T09:26:06;3.08;;;1.30;;
67174;SDS011;54110;45.778;4.826;2022-08-01T09:28:32;4.20;;;1.15;;
67174;SDS011;54110;45.778;4.826;2022-08-01T09:30:58;3.15;;;1.50;;
67174;SDS011;54110;45.778;4.826;2022-08-01T09:33:38;2.30;;;1.42;;
67174;SDS011;54110;45.778;4.826;2022-08-01T09:36:15;2.22;;;1.30;;
67174;SDS011;54110;45.778;4.826;2022-08-01T09:38:43;2.55;;;1.20;;
67174;SDS011;54110;45.778;4.826;2022-08-01T09:41:08;1.77;;;1.13;;
67174;SDS011;54110;45.778;4.826;2022-08-01T09:43:34;4.68;;;1.42;;
67174;SDS011;54110;45.778;4.826;2022-08-01T09:46:04;2.67;;;1.20;;
67174;SDS011;54110;45.778;4.826;2022-08-01T09:48:33;1.50;;;1.40;;
67174;SDS011;54110;45.778;4.826;2022-08-01T09:50:59;1.35;;;1.20;;
67174;SDS011;54110;45.778;4.826;2022-08-01T09:53:25;2.78;;;1.20;;
67174;SDS011;54110;45.778;4.826;2022-08-01T09:55:52;5.47;;;1.35;;
67174;SDS011;54110;45.778;4.826;2022-08-01T09:58:18;6.07;;;1.60;;
67174;SDS011;54110;45.778;4.826;2022-08-01T10:00:43;2.05;;;1.05;;
67174;SDS011;54110;45.778;4.826;2022-08-01T10:03:23;4.00;;;1.30;;
67174;SDS011;54110;45.778;4.826;2022-08-01T10:05:50;3.65;;;1.50;;
67174;SDS011;54110;45.778;4.826;2022-08-01T10:08:16;3.30;;;1.40;;
67174;SDS011;54110;45.778;4.826;2022-08-01T10:10:42;2.78;;;1.40;;
67174;SDS011;54110;45.778;4.826;2022-08-01T10:13:29;4.63;;;1.45;;
67174;SDS011;54110;45.778;4.826;2022-08-01T10:15:55;3.83;;;1.30;;
67174;SDS011;54110;45.778;4.826;2022-08-01T10:18:21;2.97;;;1.25;;
67174;SDS011;54110;45.778;4.826;2022-08-01T10:20:47;3.42;;;1.40;;
67174;SDS011;54110;45.778;4.826;2022-08-01T10:23:13;1.30;;;1.20;;
67174;SDS011;54110;45.778;4.826;2022-08-01T10:25:40;3.83;;;1.40;;
67174;SDS011;54110;45.778;4.826;2022-08-01T10:28:11;1.77;;;1.10;;
67174;SDS011;54110;45.778;4.826;2022-08-01T10:30:41;3.60;;;1.40;;
67174;SDS011;54110;45.778;4.826;2022-08-01T10:33:07;2.33;;;1.38;;
67174;SDS011;54110;45.778;4.826;2022-08-01T10:35:32;2.67;;;0.93;;
67174;SDS011;54110;45.778;4.826;2022-08-01T10:37:59;4.38;;;1.10;;
67174;SDS011;54110;45.778;4.826;2022-08-01T10:40:25;3.10;;;1.13;;
67174;SDS011;54110;45.778;4.826;2022-08-01T10:42:51;3.03;;;1.88;;
67174;SDS011;54110;45.778;4.826;2022-08-01T10:45:18;6.45;;;0.93;;
67174;SDS011;54110;45.778;4.826;2022-08-01T10:47:48;5.45;;;1.42;;
67174;SDS011;54110;45.778;4.826;2022-08-01T10:50:19;4.35;;;1.08;;
67174;SDS011;54110;45.778;4.826;2022-08-01T10:53:11;2.30;;;0.90;;
67174;SDS011;54110;45.778;4.826;2022-08-01T10:55:45;4.93;;;1.10;;
67174;SDS011;54110;45.778;4.826;2022-08-01T10:58:12;3.22;;;1.25;;
67174;SDS011;54110;45.778;4.826;2022-08-01T11:00:38;2.30;;;1.05;;
67174;SDS011;54110;45.778;4.826;2022-08-01T11:03:05;1.90;;;0.98;;
67174;SDS011;54110;45.778;4.826;2022-08-01T11:05:31;3.35;;;0.90;;
67174;SDS011;54110;45.778;4.826;2022-08-01T11:08:00;6.07;;;1.05;;
67174;SDS011;54110;45.778;4.826;2022-08-01T11:10:29;5.30;;;1.20;;
67174;SDS011;54110;45.778;4.826;2022-08-01T11:13:01;4.13;;;1.23;;
67174;SDS011;54110;45.778;4.826;2022-08-01T11:15:27;3.83;;;1.23;;
67174;SDS011;54110;45.778;4.826;2022-08-01T11:17:53;10.05;;;1.40;;
67174;SDS011;54110;45.778;4.826;2022-08-01T11:20:21;3.67;;;1.00;;
67174;SDS011;54110;45.778;4.826;2022-08-01T11:28:33;6.22;;;1.20;;
67174;SDS011;54110;45.778;4.826;2022-08-01T11:33:53;2.78;;;0.80;;
67174;SDS011;54110;45.778;4.826;2022-08-01T11:36:20;5.30;;;1.20;;
67174;SDS011;54110;45.778;4.826;2022-08-01T11:38:46;1.67;;;1.08;;
67174;SDS011;54110;45.778;4.826;2022-08-01T11:41:14;3.25;;;0.82;;
67174;SDS011;54110;45.778;4.826;2022-08-01T11:43:54;1.65;;;0.85;;
67174;SDS011;54110;45.778;4.826;2022-08-01T11:52:11;3.85;;;0.90;;
67174;SDS011;54110;45.778;4.826;2022-08-01T11:54:39;2.10;;;0.80;;
67174;SDS011;54110;45.778;4.826;2022-08-01T11:57:08;1.58;;;0.90;;
67174;SDS011;54110;45.778;4.826;2022-08-01T11:59:37;4.05;;;0.98;;
67174;SDS011;54110;45.778;4.826;2022-08-01T12:02:04;1.95;;;0.85;;
67174;SDS011;54110;45.778;4.826;2022-08-01T12:04:46;1.65;;;0.95;;
67174;SDS011;54110;45.778;4.826;2022-08-01T12:07:14;1.98;;;0.90;;
67174;SDS011;54110;45.778;4.826;2022-08-01T12:09:41;1.25;;;0.70;;
67174;SDS011;54110;45.778;4.826;2022-08-01T12:12:07;3.75;;;1.02;;
67174;SDS011;54110;45.778;4.826;2022-08-01T12:14:33;1.45;;;0.88;;
67174;SDS011;54110;45.778;4.826;2022-08-01T12:16:59;5.13;;;1.10;;
67174;SDS011;54110;45.778;4.826;2022-08-01T12:19:25;6.72;;;1.27;;
67174;SDS011;54110;45.778;4.826;2022-08-01T12:22:04;4.90;;;0.93;;
67174;SDS011;54110;45.778;4.826;2022-08-01T12:24:35;3.85;;;1.30;;
67174;SDS011;54110;45.778;4.826;2022-08-01T12:27:02;7.95;;;1.63;;
67174;SDS011;54110;45.778;4.826;2022-08-01T12:29:35;8.10;;;1.65;;
67174;SDS011;54110;45.778;4.826;2022-08-01T12:32:02;11.40;;;1.50;;
67174;SDS011;54110;45.778;4.826;2022-08-01T12:34:29;9.77;;;1.60;;
67174;SDS011;54110;45.778;4.826;2022-08-01T12:36:55;8.90;;;1.75;;
67174;SDS011;54110;45.778;4.826;2022-08-01T12:39:22;6.60;;;1.60;;
67174;SDS011;54110;45.778;4.826;2022-08-01T12:41:56;5.57;;;1.50;;
67174;SDS011;54110;45.778;4.826;2022-08-01T12:44:22;11.98;;;1.80;;
67174;SDS011;54110;45.778;4.826;2022-08-01T12:46:48;10.55;;;1.70;;
67174;SDS011;54110;45.778;4.826;2022-08-01T12:49:14;7.05;;;1.83;;
67174;SDS011;54110;45.778;4.826;2022-08-01T12:51:40;7.57;;;2.53;;
67174;SDS011;54110;45.778;4.826;2022-08-01T12:54:06;10.18;;;2.05;;
67174;SDS011;54110;45.778;4.826;2022-08-01T12:56:32;4.75;;;2.05;;
67174;SDS011;54110;45.778;4.826;2022-08-01T12:58:59;6.28;;;2.10;;
67174;SDS011;54110;45.778;4.826;2022-08-01T13:01:25;8.70;;;2.10;;
67174;SDS011;54110;45.778;4.826;2022-08-01T13:03:58;4.18;;;1.70;;
67174;SDS011;54110;45.778;4.826;2022-08-01T13:06:27;5.80;;;2.05;;
67174;SDS011;54110;45.778;4.826;2022-08-01T13:08:53;7.95;;;1.70;;
67174;SDS011;54110;45.778;4.826;2022-08-01T13:11:20;5.22;;;1.60;;
67174;SDS011;54110;45.778;4.826;2022-08-01T13:13:46;7.43;;;1.88;;
67174;SDS011;54110;45.778;4.826;2022-08-01T13:16:17;3.53;;;1.50;;
67174;SDS011;54110;45.778;4.826;2022-08-01T13:18:47;3.05;;;1.50;;
67174;SDS011;54110;45.778;4.826;2022-08-01T13:21:14;4.55;;;1.60;;
67174;SDS011;54110;45.778;4.826;2022-08-01T13:23:42;5.40;;;1.58;;
67174;SDS011;54110;45.778;4.826;2022-08-01T13:26:36;5.28;;;1.58;;
67174;SDS011;54110;45.778;4.826;2022-08-01T13:29:04;3.28;;;1.50;;
67174;SDS011;54110;45.778;4.826;2022-08-01T13:31:33;2.50;;;1.45;;
67174;SDS011;54110;45.778;4.826;2022-08-01T13:33:59;1.98;;;1.40;;
67174;SDS011;54110;45.778;4.826;2022-08-01T13:36:25;1.70;;;1.30;;
67174;SDS011;54110;45.778;4.826;2022-08-01T13:38:50;2.40;;;1.50;;
67174;SDS011;54110;45.778;4.826;2022-08-01T13:41:16;3.40;;;1.38;;
67174;SDS011;54110;45.778;4.826;2022-08-01T13:43:42;3.00;;;1.35;;
67174;SDS011;54110;45.778;4.826;2022-08-01T13:46:07;4.47;;;1.45;;
67174;SDS011;54110;45.778;4.826;2022-08-01T13:48:34;1.63;;;1.08;;
67174;SDS011;54110;45.778;4.826;2022-08-01T13:51:00;3.17;;;1.50;;
67174;SDS011;54110;45.778;4.826;2022-08-01T13:53:26;2.08;;;1.50;;
67174;SDS011;54110;45.778;4.826;2022-08-01T13:55:52;5.63;;;1.50;;
67174;SDS011;54110;45.778;4.826;2022-08-01T13:58:17;2.28;;;1.30;;
67174;SDS011;54110;45.778;4.826;2022-08-01T14:00:43;1.95;;;1.50;;
67174;SDS011;54110;45.778;4.826;2022-08-01T14:03:09;5.97;;;2.90;;
67174;SDS011;54110;45.778;4.826;2022-08-01T14:05:36;4.95;;;2.95;;
67174;SDS011;54110;45.778;4.826;2022-08-01T14:08:02;2.50;;;1.50;;
67174;SDS011;54110;45.778;4.826;2022-08-01T14:10:28;3.17;;;1.20;;
67174;SDS011;54110;45.778;4.826;2022-08-01T14:12:54;3.90;;;1.58;;
67174;SDS011;54110;45.778;4.826;2022-08-01T14:15:20;2.40;;;1.40;;
67174;SDS011;54110;45.778;4.826;2022-08-01T14:17:46;8.73;;;1.40;;
67174;SDS011;54110;45.778;4.826;2022-08-01T14:20:12;2.72;;;1.10;;
67174;SDS011;54110;45.778;4.826;2022-08-01T14:22:39;1.75;;;1.10;;
67174;SDS011;54110;45.778;4.826;2022-08-01T14:25:05;2.97;;;1.13;;
67174;SDS011;54110;45.778;4.826;2022-08-01T14:27:31;2.55;;;1.10;;
67174;SDS011;54110;45.778;4.826;2022-08-01T14:29:57;6.97;;;1.30;;
67174;SDS011;54110;45.778;4.826;2022-08-01T14:32:22;2.63;;;1.13;;
67174;SDS011;54110;45.778;4.826;2022-08-01T14:34:48;4.00;;;1.42;;
67174;SDS011;54110;45.778;4.826;2022-08-01T14:37:14;2.00;;;1.13;;
67174;SDS011;54110;45.778;4.826;2022-08-01T14:39:41;3.17;;;1.02;;
67174;SDS011;54110;45.778;4.826;2022-08-01T14:42:07;3.17;;;0.98;;
67174;SDS011;54110;45.778;4.826;2022-08-01T14:44:32;3.30;;;1.10;;
67174;SDS011;54110;45.778;4.826;2022-08-01T14:46:58;4.25;;;1.27;;
67174;SDS011;54110;45.778;4.826;2022-08-01T14:49:24;7.28;;;1.08;;
67174;SDS011;54110;45.778;4.826;2022-08-01T14:51:49;1.23;;;0.95;;
67174;SDS011;54110;45.778;4.826;2022-08-01T14:54:15;1.83;;;1.00;;
67174;SDS011;54110;45.778;4.826;2022-08-01T14:56:42;2.28;;;1.10;;
67174;SDS011;54110;45.778;4.826;2022-08-01T14:59:08;1.33;;;0.93;;
67174;SDS011;54110;45.778;4.826;2022-08-01T15:01:33;3.42;;;1.00;;
67174;SDS011;54110;45.778;4.826;2022-08-01T15:03:59;1.85;;;1.00;;